Paradise Park, Pennsylvania
Current Conditions -  °F | °C
As of 10:56 AM on Wednesday 22 Oct 2014 (Local Time) from KCXY Reporting Station
Light Rain Light Rain  
Wind Chill: 54°   Ceiling: 2200
Heat Index: 54°   Visibility: 10mi
Dew Point: 48°   Wind: 10mph
Humidity: 80%   Direction: 350°N
Pressure: 29.98"   Gusts: 17mph
Location:  40.4189°N, 77.1972°W
Report Text: KCXY 221456Z 35009G15KT 10SM -RA BKN022 BKN030 OVC035 12/09 A2998 RMK AO2 SLP155 P0001 60001 T01220089 51012
Loading
Personal Weather Stations






























Interactive Weather Map
Tropical Storm Tracking
New forecast layout! Learn more

10-Day Weather Forecast

Advertisements
Track Severe Weather on mobile